• Join FlightAware (Why Join?)
  • Login
  • US Flag 
04:57PM EDT


 

Airport Tracker/Info


-or-


 

Live Flight TrackerFlight Track Log ✈ UAL319 ✈ 08-May-2013 ✈ KSFO - KIAH

Flight Track Log - Related Links

Times and Time Zones

All times are in EDT time to prevent confusion due to time zone crossing. See the UAL319 flight status page for this flight to view local times or setup timezone preferences in your user account.

Time Position Orientation Groundspeed Altitude Reporting Facility
EDT Latitude Longitude Course Direction KTS MPH feet Rate Location/Type
03:43PM 37.6500 -122.3667 134° Southeast 155 178 1,400  Level Northern Cal TRACON
03:44PM 37.7000 -122.3667 360° North 216 249 3,400 2,340 Climbing Northern Cal TRACON
03:45PM 37.7000 -122.4333 270° West 243 280 6,100 2,580 Climbing Northern Cal TRACON
03:46PM 37.6333 -122.4500 191° South 271 312 8,600 2,220 Climbing Northern Cal TRACON
03:47PM 37.3362 -122.2101 136° Southeast  Level FlightAware Approximate
03:48PM 37.2480 -122.0806 133° Southeast  Level FlightAware Approximate
03:48PM 37.5419 -122.4106 161° South 296 341 11,200  Level Oakland Center
03:49PM 37.1537 -121.9571 134° Southeast  Level FlightAware Approximate
03:49PM 37.4578 -122.3500 150° Southeast 349 402 13,600  Level Oakland Center
03:50PM 37.3878 -122.2544 133° Southeast 370 426 15,500 1,920 Climbing Oakland Center
03:51PM 37.3119 -122.1511 133° Southeast 399 459 17,600 2,160 Climbing Oakland Center
03:52PM 37.2333 -122.0458 133° Southeast 411 473 20,000 2,340 Climbing Oakland Center
03:53PM 37.1364 -121.9169 133° Southeast 424 488 22,500 2,040 Climbing Oakland Center
03:54PM 37.0542 -121.8061 133° Southeast 433 498 24,200 1,620 Climbing Oakland Center
03:55PM 36.9672 -121.6944 134° Southeast 446 513 25,800 1,560 Climbing Oakland Center
03:56PM 36.8819 -121.5764 132° Southeast 457 526 27,400 1,380 Climbing Oakland Center
03:57PM 36.8069 -121.4531 127° Southeast 466 536 28,700 1,440 Climbing Oakland Center
03:58PM 36.7289 -121.3219 127° Southeast 471 542 30,400 1,680 Climbing Oakland Center
03:59PM 36.6347 -121.1686 127° Southeast 467 537 32,200 1,260 Climbing Oakland Center
04:00PM 36.5550 -121.0397 128° Southeast 468 539 33,100 900 Climbing Oakland Center
04:01PM 36.4733 -120.9056 127° Southeast 482 555 34,100 900 Climbing Oakland Center
04:02PM 36.3925 -120.7697 126° Southeast 488 562 35,000 420 Climbing Oakland Center
04:03PM 36.3072 -120.6350 128° Southeast 494 568 35,000  Level Oakland Center
04:04PM 36.2214 -120.4997 128° Southeast 497 572 35,000  Level Oakland Center
04:05PM 36.1358 -120.3569 127° Southeast 509 586 35,000  Level Oakland Center
04:06PM 36.0503 -120.2211 128° Southeast 498 573 35,000  Level Oakland Center
04:07PM 35.9669 -120.0925 129° Southeast 477 549 35,000 -60 Level Oakland Center
04:08PM 35.8803 -119.9558 128° Southeast 494 568 34,900  Descending Oakland Center
04:09PM 35.7942 -119.8203 128° Southeast 497 572 35,000  Climbing Oakland Center
04:10PM 35.7078 -119.6856 128° Southeast 498 573 35,000 -60 Level Oakland Center
04:12PM 35.5167 -119.3881 128° Southeast 503 579 34,900  Descending Oakland Center
04:13PM 35.4653 -119.3081 128° Southeast 499 574 35,000  Climbing Los Angeles Center
04:14PM 35.3792 -119.1736 128° Southeast 499 574 35,000  Level Los Angeles Center
04:15PM 35.2758 -119.0144 128° Southeast 496 571 35,000  Level Los Angeles Center
04:16PM 35.1883 -118.8819 129° Southeast 499 574 35,000  Level Los Angeles Center
04:18PM 35.0158 -118.6217 129° Southeast 491 565 35,000 -60 Level Los Angeles Center
04:19PM 34.9208 -118.5028 134° Southeast 487 560 34,900  Descending Los Angeles Center
04:20PM 34.8239 -118.3875 136° Southeast 484 557 35,000  Climbing Los Angeles Center
04:21PM 34.7072 -118.2506 136° Southeast 487 560 35,000  Level Los Angeles Center
04:22PM 34.6156 -118.1381 135° Southeast 483 556 35,000  Level Los Angeles Center
04:23PM 34.5181 -118.0200 135° Southeast 484 557 35,000  Level Los Angeles Center
04:24PM 34.4672 -117.8708 112° Southeast 503 579 35,000  Level Los Angeles Center
04:25PM 34.4269 -117.7161 107° East 491 565 35,000  Level Los Angeles Center
04:26PM 34.3775 -117.5294 108° East 491 565 35,000  Level Los Angeles Center
04:27PM 34.3331 -117.3636 108° East 495 570 35,000  Level Los Angeles Center
04:28PM 34.2900 -117.2092 109° East 490 564 35,000  Level Los Angeles Center
04:29PM 34.2508 -117.0644 108° East 489 563 35,000  Level Los Angeles Center
04:30PM 34.2072 -116.9108 109° East 488 562 35,000  Level Los Angeles Center
04:32PM 34.1572 -116.7256 108° East 486 559 35,000  Level Los Angeles Center
04:33PM 34.1197 -116.5875 108° East 485 558 35,000  Level Los Angeles Center
04:34PM 34.0775 -116.4350 108° East 480 552 35,000  Level Los Angeles Center
04:35PM 34.0175 -116.2186 108° East 484 557 35,000  Level Los Angeles Center
04:36PM 33.9747 -116.0658 109° East 480 552 35,000  Level Los Angeles Center
04:37PM 33.9306 -115.9133 109° East 480 552 35,000  Level Los Angeles Center
04:38PM 33.8872 -115.7611 109° East 479 551 35,000  Level Los Angeles Center
04:39PM 33.8442 -115.6108 109° East 476 548 35,000  Level Los Angeles Center
04:40PM 33.7989 -115.4583 110° East 483 556 35,000  Level Los Angeles Center
04:41PM 33.7464 -115.2767 109° East 479 551 35,000 -60 Level Los Angeles Center
04:42PM 33.7028 -115.1231 109° East 484 557 34,900  Descending Los Angeles Center
04:43PM 33.6569 -114.9697 110° East 488 562 35,000  Climbing Los Angeles Center
04:44PM 33.6119 -114.8169 109° East 487 560 35,000  Level Los Angeles Center
04:45PM 33.5750 -114.6575 106° East 498 573 35,000 -120 Level Los Angeles Center
04:46PM 33.5642 -114.5719 99° East 495 570 34,900  Descending Albuquerque Center
04:47PM 33.5358 -114.4078 102° East 501 577 35,000  Climbing Albuquerque Center
04:48PM 33.5067 -114.2439 102° East 502 578 34,900  Descending Albuquerque Center
04:50PM 33.4464 -113.9175 102° East 503 579 35,000  Climbing Albuquerque Center
04:51PM 33.4108 -113.7189 102° East 505 581 35,000  Level Albuquerque Center
04:52PM 33.3808 -113.5508 102° East 509 586 35,000  Level Albuquerque Center
04:53PM 33.3508 -113.3822 102° East 513 590 35,000 -60 Level Albuquerque Center
04:54PM 33.3194 -113.2100 102° East 522 601 34,900  Descending Albuquerque Center
04:55PM 33.2867 -113.0397 103° East 525 604 35,000  Climbing Albuquerque Center
04:56PM 33.2547 -112.8675 102° East 528 608 35,000 -60 Level Albuquerque Center
04:57PM 33.2211 -112.6964 103° East 528 608 34,900  Descending Albuquerque Center
04:58PM 33.1722 -112.5039 107° East 529 609 35,000  Climbing Albuquerque Center
04:59PM 33.1125 -112.3386 113° Southeast 522 601 35,000  Level Albuquerque Center
05:00PM 33.0800 -112.1775 103° East 533 613 35,000  Level Albuquerque Center
05:01PM 33.0472 -112.0056 103° East 537 618 35,000  Level Albuquerque Center
05:02PM 33.0083 -111.7994 103° East 537 618 35,000  Level Albuquerque Center
05:03PM 32.9733 -111.6250 103° East 541 623 35,000  Level Albuquerque Center
05:04PM 32.9400 -111.4514 103° East 542 624 35,000  Level Albuquerque Center
05:05PM 32.9058 -111.2767 103° East 544 626 35,000  Level Albuquerque Center
05:06PM 32.8722 -111.1022 103° East 544 626 35,000  Level Albuquerque Center
05:07PM 32.8317 -110.8953 103° East 541 623 35,000  Level Albuquerque Center
05:08PM 32.7969 -110.7228 103° East 539 620 35,000  Level Albuquerque Center
05:09PM 32.7617 -110.5489 104° East 537 618 35,000  Level Albuquerque Center
05:10PM 32.7275 -110.3772 103° East 537 618 35,000  Level Albuquerque Center
05:11PM 32.6922 -110.2075 104° East 538 619 35,000  Level Albuquerque Center
05:12PM 32.6561 -110.0367 104° East 538 619 35,000  Level Albuquerque Center
05:14PM 32.6136 -109.8328 104° East 538 619 35,000  Level Albuquerque Center
05:15PM 32.5767 -109.6608 104° East 542 624 35,000  Level Albuquerque Center
05:16PM 32.5397 -109.4881 104° East 547 629 35,000  Level Albuquerque Center
05:17PM 32.5042 -109.3169 104° East 545 627 35,000  Level Albuquerque Center
05:18PM 32.4583 -109.1092 105° East 551 634 35,000  Level Albuquerque Center
05:19PM 32.4211 -108.9344 104° East 555 639 35,000  Level Albuquerque Center
05:20PM 32.3831 -108.7597 104° East 557 641 35,000  Level Albuquerque Center
05:21PM 32.3453 -108.5842 104° East 558 642 35,000 -60 Level Albuquerque Center
05:22PM 32.2992 -108.3783 105° East 558 642 34,900  Descending Albuquerque Center
05:23PM 32.2597 -108.2014 105° East 559 643 35,000  Climbing Albuquerque Center
05:24PM 32.2200 -108.0233 105° East 561 646 35,000 -60 Level Albuquerque Center
05:25PM 32.1792 -107.8464 105° East 562 647 34,900  Descending Albuquerque Center
05:26PM 32.1403 -107.6703 105° East 561 646 35,000  Climbing Albuquerque Center
05:27PM 32.0933 -107.4586 105° East 561 646 35,000  Level Albuquerque Center
05:28PM 32.0528 -107.2831 105° East 562 647 35,000  Level Albuquerque Center
05:29PM 32.0131 -107.1092 105° East 560 644 35,000  Level Albuquerque Center
05:30PM 31.9728 -106.9350 105° East 558 642 35,000  Level Albuquerque Center
05:31PM 31.9236 -106.7272 106° East 556 640 35,000  Level Albuquerque Center
05:32PM 31.8811 -106.5536 106° East 556 640 35,000  Level Albuquerque Center
05:33PM 31.8456 -106.3994 105° East 557 641 35,000 -60 Level Albuquerque Center
05:34PM 31.8044 -106.1867 103° East 559 643 34,900  Descending Albuquerque Center
05:35PM 31.7822 -106.0061 98° East 559 643 35,000  Climbing Albuquerque Center
05:36PM 31.7606 -105.8250 98° East 560 644 35,000  Level Albuquerque Center
05:37PM 31.7383 -105.6442 98° East 560 644 35,000 -60 Level Albuquerque Center
05:38PM 31.7167 -105.4619 98° East 561 646 34,900  Descending Albuquerque Center
05:39PM 31.6939 -105.2797 98° East 561 646 35,000  Climbing Albuquerque Center
05:40PM 31.6717 -105.0975 98° East 562 647 35,000 -60 Level Albuquerque Center
05:41PM 31.6444 -104.8817 98° East 559 643 34,900  Descending Albuquerque Center
05:42PM 31.6217 -104.6992 98° East 562 647 35,000  Climbing Albuquerque Center
05:43PM 31.5981 -104.5192 99° East 558 642 35,000  Level Albuquerque Center
05:45PM 31.5758 -104.3375 98° East 559 643 35,000  Level Albuquerque Center
05:46PM 31.5500 -104.1567 99° East 561 646 35,000 -60 Level Albuquerque Center
05:47PM 31.5261 -103.9747 99° East 563 648 34,900  Descending Albuquerque Center
05:48PM 31.5014 -103.7947 99° East 560 644 35,000  Climbing Albuquerque Center
05:49PM 31.4703 -103.5883 100° East 559 643 34,900  Descending Albuquerque Center
05:50PM 31.4169 -103.4192 110° East 556 640 35,000  Climbing Albuquerque Center
05:51PM 31.3614 -103.2519 111° Southeast 553 636 34,900 -60 Descending Albuquerque Center
05:52PM 31.3042 -103.0847 112° Southeast 553 636 34,900  Level Albuquerque Center
05:53PM 31.2378 -102.8858 111° Southeast 553 636 35,000  Climbing Albuquerque Center
05:54PM 31.1803 -102.7189 112° Southeast 554 638 35,000  Level Albuquerque Center
05:55PM 31.1242 -102.5536 112° Southeast 554 638 35,000  Level Albuquerque Center
05:56PM 31.0700 -102.3903 111° Southeast 561 646 35,000  Level Albuquerque Center
05:57PM 31.0125 -102.2258 112° Southeast 554 638 35,000  Level Albuquerque Center
05:58PM 30.9444 -102.0303 112° Southeast 549 632 35,000  Level Albuquerque Center
05:59PM 30.8878 -101.8667 112° Southeast 548 631 35,000 -60 Level Albuquerque Center
06:00PM 30.8314 -101.7031 112° Southeast 548 631 34,900 -60 Descending Albuquerque Center
06:01PM 30.7894 -101.5792 111° Southeast 551 634 34,900  Level Houston Center
06:02PM 30.7311 -101.4158 113° Southeast 549 632 35,000  Climbing Houston Center
06:03PM 30.6731 -101.2550 113° Southeast 545 627 34,900  Descending Houston Center
06:04PM 30.6161 -101.0894 112° Southeast 550 633 35,000  Climbing Houston Center
06:05PM 30.5583 -100.9275 112° Southeast 545 627 35,000 -60 Level Houston Center
06:06PM 30.5011 -100.7656 112° Southeast 543 625 34,900  Descending Houston Center
06:07PM 30.4306 -100.5717 113° Southeast 544 626 35,000  Climbing Houston Center
06:08PM 30.3728 -100.4086 112° Southeast 544 626 34,900 -60 Descending Houston Center
06:09PM 30.3133 -100.2444 113° Southeast 545 627 34,900  Level Houston Center
06:10PM 30.2517 -100.0797 113° Southeast 549 632 35,000  Climbing Houston Center
06:11PM 30.1919 -99.9172 113° Southeast 543 625 35,000  Level Houston Center
06:12PM 30.1319 -99.7556 113° Southeast 544 626 35,000  Level Houston Center
06:13PM 30.0722 -99.5953 113° Southeast 542 624 35,000  Level Houston Center
06:14PM 30.0122 -99.4339 113° Southeast 544 626 35,000  Level Houston Center
06:15PM 29.9419 -99.2403 113° Southeast 546 628 35,000  Level Houston Center
06:17PM 29.8634 -99.0458 115° Southeast  Level FlightAware Approximate
06:17PM 29.8150 -98.9081 115° Southeast 544 626 35,000  Level Houston Center
06:18PM 29.7544 -98.7494 114° Southeast 542 624 35,000  Level Houston Center
06:19PM 29.6892 -98.5778 114° Southeast 542 624 35,000  Level Houston Center
06:20PM 29.6469 -98.4081 106° East 553 636 35,000  Level Houston Center
06:21PM 29.6475 -98.2350 90° East 539 620 35,000  Level Houston Center
06:22PM 29.6503 -98.0500 89° East 539 620 35,000 -120 Level Houston Center
06:23PM 29.6519 -97.8781 89° East 538 619 34,800 -1,440 Descending Houston Center
06:24PM 29.6422 -97.7153 94° East 542 624 32,100 -2,340 Descending Houston Center
06:25PM 29.6303 -97.5442 95° East 541 623 30,000 -2,640 Descending Houston Center
06:27PM 29.6203 -97.3808 94° East 519 597 26,700 -3,180 Descending Houston Center
06:28PM 29.6100 -97.1856 93° East 511 588 23,500 -2,760 Descending Houston Center
06:29PM 29.6008 -97.0317 94° East 484 557 21,100 -2,520 Descending Houston Center
06:30PM 29.5928 -96.8825 94° East 470 541 18,300 -2,580 Descending Houston Center
06:31PM 29.5836 -96.7392 94° East 448 516 15,800 -2,400 Descending Houston Center
06:32PM 29.5747 -96.6022 94° East 429 494 13,300 -2,580 Descending Houston Center
06:32PM 29.5683 -96.5097 95° East 411 473 11,500 -2,340 Descending Houston Center
06:33PM 29.5658 -96.4728 94° East 409 471 10,900 -1,500 Descending Houston Center
06:33PM 29.5572 -96.3789 96° East 400 460 10,000 -1,020 Descending Houston Center
06:34PM 29.5561 -96.3481 92° East 395 455 9,900  Descending Houston Center
06:35PM 29.5506 -96.2500 94° East 335 386 10,000 60 Climbing Houston Center
06:35PM 29.5489 -96.2389 100° East 348 400 10,000  Level Houston Center
06:36PM 29.5619 -96.1361 82° East 345 397 10,000 -60 Level Houston Center
06:37PM 29.6064 -96.0444 61° Northeast 351 404 9,900  Descending Houston Center
06:37PM 29.6214 -96.0175 57° Northeast 347 399 10,000 60 Climbing Houston Center
06:37PM 29.6494 -95.9603 61° Northeast 312 359 10,000 -120 Level Houston Center
06:38PM 29.6631 -95.9344 59° Northeast 324 373 9,900 -1,200 Descending Houston Center
06:39PM 29.7208 -95.8897 34° Northeast 307 353 8,700 -1,260 Descending Houston Center
06:39PM 29.7342 -95.8819 27° Northeast 308 354 8,600 -1,260 Descending Houston Center
06:40PM 29.7969 -95.8472 26° Northeast 301 346 7,400 -1,560 Descending Houston Center
06:40PM 29.8242 -95.8311 27° Northeast 300 345 7,000 -1,260 Descending Houston Center
06:41PM 29.8733 -95.8072 23° Northeast 296 341 6,100 -1,260 Descending Houston Center
06:41PM 29.8992 -95.7911 28° Northeast 296 341 5,700 -660 Descending Houston Center
06:42PM 29.9533 -95.7642 23° Northeast 264 304 5,400 -300 Descending Houston Center
06:42PM 29.9694 -95.7550 26° Northeast 282 325 5,400 -600 Level Houston Center
06:43PM 29.9881 -95.7069 66° East 216 249 4,800 -720 Descending Houston Center
06:43PM 29.9919 -95.6919 73° East 219 252 4,700 -780 Descending Houston Center
06:44PM 29.9944 -95.6364 87° East 204 235 4,000 -780 Descending Houston Center
06:44PM 29.9944 -95.6258 90° East 208 239 3,900 -600 Descending Houston Center
06:45PM 29.9928 -95.5689 92° East 203 234 3,400 -420 Descending Houston Center
06:45PM 29.9944 -95.5594 78° East 207 238 3,500 -720 Climbing Houston Center
06:46PM 29.9936 -95.5086 91° East 184 212 2,700 -900 Descending Houston Center
06:46PM 29.9947 -95.4986 83° East 200 230 2,600 -300 Descending Houston Center